Time;durP1;ratioP1;P1;durP2;ratioP2;P2;SDS_P1;SDS_P2;PMS_P1;PMS_P2;Temp;Humidity;BMP_temperature;BMP_pressure;BME280_temperature;BME280_humidity;BME280_pressure;Samples;Min_cycle;Max_cycle;Signal;HPM_P1;HPM_P2
2022/05/18 00:00:19;;;;;;;24.73;13.82;;;18.90;99.90;;;;;;5034106;28;20051;-59
2022/05/18 00:02:45;;;;;;;23.02;14.25;;;18.90;99.90;;;;;;5033973;28;20742;-59
2022/05/18 00:05:11;;;;;;;21.90;14.05;;;18.90;99.90;;;;;;5051959;28;20013;-59
2022/05/18 00:07:37;;;;;;;24.15;14.30;;;19.00;99.90;;;;;;5051726;28;20021;-59
2022/05/18 00:10:04;;;;;;;22.23;14.35;;;18.90;99.90;;;;;;5033911;28;20029;-59
2022/05/18 00:12:29;;;;;;;20.92;14.50;;;18.90;99.90;;;;;;5051807;28;20074;-59
2022/05/18 00:14:55;;;;;;;23.10;14.27;;;19.10;99.90;;;;;;5051820;28;20520;-59
2022/05/18 00:17:21;;;;;;;22.88;13.43;;;19.20;99.90;;;;;;5051585;28;20419;-59
2022/05/18 00:19:46;;;;;;;23.17;13.43;;;19.20;99.90;;;;;;5051481;28;20057;-59
2022/05/18 00:22:12;;;;;;;29.38;13.32;;;19.30;99.90;;;;;;5033473;28;20028;-59
2022/05/18 00:24:37;;;;;;;17.00;12.98;;;19.30;99.90;;;;;;5052250;28;20025;-59
2022/05/18 00:27:03;;;;;;;19.77;12.13;;;19.30;99.90;;;;;;5052331;28;20024;-59
2022/05/18 00:29:33;;;;;;;19.60;11.85;;;19.20;99.90;;;;;;5052193;28;20033;-59
2022/05/18 00:31:59;;;;;;;22.60;13.18;;;19.30;99.90;;;;;;5052103;28;20029;-59
2022/05/18 00:34:26;;;;;;;18.20;12.40;;;19.30;99.90;;;;;;5034409;28;20113;-59
2022/05/18 00:36:51;;;;;;;20.88;12.68;;;19.50;99.90;;;;;;5051874;28;20033;-59
2022/05/18 00:39:18;;;;;;;16.25;12.38;;;19.50;99.90;;;;;;5033795;28;20032;-59
2022/05/18 00:41:44;;;;;;;19.33;12.93;;;19.50;99.90;;;;;;5051420;28;20032;-59
2022/05/18 00:44:10;;;;;;;18.13;12.13;;;19.50;99.90;;;;;;5051699;28;20017;-59
2022/05/18 00:46:36;;;;;;;20.95;12.70;;;19.60;99.90;;;;;;5051735;28;20033;-59
2022/05/18 00:49:06;;;;;;;19.42;12.70;;;19.70;99.90;;;;;;5054279;28;20030;-59
2022/05/18 00:51:53;;;;;;;21.45;12.68;;;19.60;99.90;;;;;;5055842;28;20544;-59
2022/05/18 00:54:26;;;;;;;14.73;7.18;;;19.70;99.90;;;;;;5055902;28;20029;-59
2022/05/18 00:56:54;;;;;;;;;;;19.70;99.90;;;;;;5056283;28;20477;-59
2022/05/18 00:59:39;;;;;;;14.00;4.85;;;19.80;99.90;;;;;;5056159;28;19950;-59
2022/05/18 01:02:07;;;;;;;7.05;3.70;;;19.90;99.90;;;;;;5055586;28;20028;-58
2022/05/18 01:04:33;;;;;;;9.65;3.63;;;19.90;99.90;;;;;;5055682;28;20044;-58
2022/05/18 01:07:07;;;;;;;5.00;2.92;;;20.00;99.90;;;;;;5055431;28;20025;-59
2022/05/18 01:09:39;;;;;;;8.43;3.13;;;20.10;99.90;;;;;;5055532;28;20508;-58
2022/05/18 01:12:07;;;;;;;7.85;3.20;;;20.20;99.90;;;;;;5055474;28;20032;-58
2022/05/18 01:14:39;;;;;;;6.97;3.03;;;20.30;99.90;;;;;;5037462;28;20118;-58
2022/05/18 01:17:05;;;;;;;9.45;3.00;;;20.30;99.90;;;;;;5037743;28;20037;-58
2022/05/18 01:19:37;;;;;;;6.88;2.97;;;20.50;99.90;;;;;;5055151;28;20045;-58
2022/05/18 01:22:36;;;;;;;7.38;2.83;;;20.50;99.90;;;;;;5037507;28;20540;-59
2022/05/18 01:25:20;;;;;;;6.90;2.88;;;20.60;99.90;;;;;;5037486;28;20032;-59
2022/05/18 01:27:46;;;;;;;5.85;3.22;;;20.50;99.90;;;;;;5055108;28;20104;-58
2022/05/18 01:30:12;;;;;;;7.35;2.65;;;20.40;99.90;;;;;;5054768;28;20155;-58
2022/05/18 01:32:44;;;;;;;5.38;2.72;;;20.40;99.90;;;;;;5054934;28;20029;-58
2022/05/18 01:35:15;;;;;;;5.93;3.13;;;20.40;99.90;;;;;;5054948;28;20104;-58
2022/05/18 01:37:40;;;;;;;10.75;2.88;;;20.30;99.90;;;;;;5037497;28;20389;-58
2022/05/18 01:40:13;;;;;;;4.43;2.25;;;20.40;99.90;;;;;;5055027;28;20036;-58
2022/05/18 01:42:42;;;;;;;6.38;2.58;;;20.50;99.90;;;;;;5037261;28;20021;-58
2022/05/18 01:45:08;;;;;;;4.22;2.53;;;20.30;99.90;;;;;;5055221;28;20036;-58
2022/05/18 01:47:35;;;;;;;6.22;3.05;;;20.00;99.90;;;;;;5054941;28;20029;-58
2022/05/18 01:50:05;;;;;;;5.28;2.58;;;19.80;99.90;;;;;;5036706;28;20025;-58
2022/05/18 01:52:32;;;;;;;8.68;2.55;;;19.60;99.90;;;;;;5054671;28;20388;-58
2022/05/18 01:54:59;;;;;;;5.30;2.50;;;19.50;99.90;;;;;;5054651;28;20104;-58
2022/05/18 01:57:25;;;;;;;6.18;2.58;;;19.40;99.90;;;;;;5054318;28;20056;-58
2022/05/18 01:59:51;;;;;;;7.47;3.15;;;19.40;99.90;;;;;;5035883;28;20024;-59
2022/05/18 02:02:17;;;;;;;11.85;2.95;;;19.50;99.90;;;;;;5036977;28;20033;-58
2022/05/18 02:04:43;;;;;;;7.63;3.00;;;19.50;99.90;;;;;;5054773;28;20376;-59
2022/05/18 02:07:11;;;;;;;4.97;2.63;;;19.50;99.90;;;;;;5054123;28;20055;-59
2022/05/18 02:09:38;;;;;;;7.68;3.05;;;19.60;99.90;;;;;;5054270;28;20025;-58
2022/05/18 02:12:06;;;;;;;12.95;3.38;;;19.60;99.90;;;;;;5054723;28;20033;-59
2022/05/18 02:14:32;;;;;;;7.20;3.25;;;19.60;99.90;;;;;;5054544;28;20055;-58
2022/05/18 02:16:57;;;;;;;8.70;3.50;;;19.70;99.90;;;;;;5054188;28;20059;-59
2022/05/18 02:19:23;;;;;;;5.03;2.80;;;19.60;99.90;;;;;;5054321;28;20497;-59
2022/05/18 02:21:49;;;;;;;5.88;3.20;;;19.50;99.90;;;;;;5054162;28;20029;-59
2022/05/18 02:24:15;;;;;;;6.75;3.15;;;19.30;99.90;;;;;;5054070;28;20481;-58
2022/05/18 02:26:41;;;;;;;5.68;3.17;;;19.10;99.90;;;;;;5054098;28;20036;-59
2022/05/18 02:29:06;;;;;;;6.03;3.35;;;18.90;99.90;;;;;;5053845;28;20098;-58
2022/05/18 02:31:32;;;;;;;7.57;3.38;;;18.90;99.90;;;;;;5053846;28;20562;-58
2022/05/18 02:33:58;;;;;;;7.28;3.65;;;18.80;99.90;;;;;;5035927;28;20029;-58
2022/05/18 02:36:23;;;;;;;21.17;4.18;;;18.80;99.90;;;;;;5035659;28;20394;-58
2022/05/18 02:38:50;;;;;;;12.77;3.85;;;18.70;99.90;;;;;;5053678;28;20104;-58
2022/05/18 02:41:18;;;;;;;11.18;3.70;;;18.80;99.90;;;;;;5053392;28;20029;-58
2022/05/18 02:43:43;;;;;;;9.57;3.53;;;18.80;99.90;;;;;;5053455;28;20024;-58
2022/05/18 02:46:14;;;;;;;8.60;3.33;;;18.90;99.90;;;;;;5053350;28;20040;-58
2022/05/18 02:48:40;;;;;;;10.43;3.92;;;18.90;99.90;;;;;;5053258;28;20535;-58
2022/05/18 02:51:07;;;;;;;10.63;3.45;;;19.00;99.90;;;;;;5035572;28;20029;-59
2022/05/18 02:53:33;;;;;;;9.82;3.65;;;19.10;99.90;;;;;;5053169;28;20435;-59
2022/05/18 02:56:08;;;;;;;6.97;3.67;;;19.00;99.90;;;;;;5053584;28;20143;-58
2022/05/18 02:58:36;;;;;;;7.60;3.47;;;19.00;99.90;;;;;;5053421;28;20026;-58
2022/05/18 03:01:04;;;;;;;8.02;3.75;;;19.00;99.90;;;;;;5053247;28;20025;-59
2022/05/18 03:03:31;;;;;;;6.18;3.35;;;19.20;99.90;;;;;;5053300;28;20036;-58
2022/05/18 03:05:56;;;;;;;7.72;3.40;;;19.20;99.90;;;;;;5053154;28;20075;-59
2022/05/18 03:08:22;;;;;;;9.52;3.20;;;19.20;99.90;;;;;;5052591;28;20036;-58
2022/05/18 03:10:47;;;;;;;8.95;3.10;;;19.20;99.90;;;;;;5033953;28;20124;-58
2022/05/18 03:13:13;;;;;;;10.45;2.65;;;19.30;99.90;;;;;;5034477;28;20090;-58
2022/05/18 03:15:39;;;;;;;6.80;3.17;;;19.30;99.90;;;;;;5053014;28;20078;-58
2022/05/18 03:18:04;;;;;;;8.07;3.67;;;19.20;99.90;;;;;;5052742;28;20025;-57
2022/05/18 03:25:58;;;;;;;10.45;3.45;;;18.80;99.90;;;;;;5052792;28;20119;-57
2022/05/18 03:28:24;;;;;;;9.70;3.95;;;18.60;99.90;;;;;;5052411;28;20052;-57
2022/05/18 03:30:49;;;;;;;9.30;3.80;;;18.60;99.90;;;;;;5052250;28;20112;-57
2022/05/18 03:33:15;;;;;;;8.80;3.65;;;18.50;99.90;;;;;;5052445;28;20032;-57
2022/05/18 03:35:40;;;;;;;11.88;4.25;;;18.30;99.90;;;;;;5052250;28;20611;-57
2022/05/18 03:38:06;;;;;;;8.93;4.20;;;18.40;99.90;;;;;;5051888;28;20032;-57
2022/05/18 03:40:36;;;;;;;6.85;3.53;;;18.40;99.90;;;;;;5051962;28;20381;-57
2022/05/18 03:43:03;;;;;;;11.13;4.13;;;18.50;99.90;;;;;;5034107;28;20024;-57
2022/05/18 03:45:29;;;;;;;9.82;3.20;;;18.50;99.90;;;;;;5051943;28;20020;-57
2022/05/18 03:47:55;;;;;;;9.63;3.42;;;18.70;99.90;;;;;;5033968;28;20025;-57
2022/05/18 03:50:21;;;;;;;8.63;2.85;;;18.70;99.90;;;;;;5033873;28;20021;-57
2022/05/18 03:52:46;;;;;;;7.20;3.47;;;18.80;99.90;;;;;;5051732;28;20464;-57
2022/05/18 03:55:13;;;;;;;6.80;3.15;;;18.80;99.90;;;;;;5034143;28;20439;-57
2022/05/18 03:57:38;;;;;;;7.68;3.15;;;18.90;99.90;;;;;;5051729;28;20053;-57
2022/05/18 04:00:06;;;;;;;7.80;3.42;;;19.00;99.90;;;;;;5051733;28;20064;-57
2022/05/18 04:02:33;;;;;;;9.30;3.15;;;19.00;99.90;;;;;;5051667;28;20021;-57
2022/05/18 04:04:59;;;;;;;6.60;2.90;;;19.20;99.90;;;;;;5051803;28;20040;-57
2022/05/18 04:07:25;;;;;;;5.07;2.50;;;19.20;99.90;;;;;;5033754;28;20369;-57
2022/05/18 04:09:50;;;;;;;4.97;3.20;;;19.20;99.90;;;;;;5033470;28;20111;-57
2022/05/18 04:12:16;;;;;;;6.43;2.80;;;19.30;99.90;;;;;;5051638;28;20033;-57
2022/05/18 04:14:42;;;;;;;4.70;2.80;;;19.30;99.90;;;;;;5051589;28;20100;-57
2022/05/18 04:17:07;;;;;;;5.72;3.00;;;19.40;99.90;;;;;;5051471;28;20500;-57
2022/05/18 04:19:33;;;;;;;5.28;2.80;;;19.50;99.90;;;;;;5051196;28;20110;-57
2022/05/18 04:21:58;;;;;;;6.72;2.90;;;19.60;99.90;;;;;;5051515;28;20465;-57
2022/05/18 04:24:24;;;;;;;6.80;3.40;;;19.60;99.90;;;;;;5051434;28;20052;-57
2022/05/18 04:26:50;;;;;;;5.45;3.25;;;19.60;99.90;;;;;;5051336;28;20017;-57
2022/05/18 04:29:15;;;;;;;6.30;3.30;;;19.70;99.90;;;;;;5033974;28;20569;-57
2022/05/18 04:31:41;;;;;;;7.47;3.30;;;19.70;99.90;;;;;;5051440;28;20029;-57
2022/05/18 04:34:07;;;;;;;5.93;3.40;;;19.70;99.90;;;;;;5033336;28;20496;-57
2022/05/18 04:36:33;;;;;;;4.65;3.30;;;19.80;99.90;;;;;;5033525;28;20131;-57
2022/05/18 04:38:58;;;;;;;8.48;3.85;;;19.90;99.90;;;;;;5051281;28;20025;-57
2022/05/18 04:41:24;;;;;;;4.65;3.40;;;19.90;99.90;;;;;;5033363;28;20029;-57
2022/05/18 04:43:50;;;;;;;7.93;3.53;;;19.90;99.90;;;;;;5051200;28;20036;-57
2022/05/18 04:46:16;;;;;;;6.00;3.67;;;19.80;99.90;;;;;;5051338;28;20487;-57
2022/05/18 04:48:42;;;;;;;7.80;3.90;;;19.70;99.90;;;;;;5033216;28;20025;-57
2022/05/18 04:51:08;;;;;;;6.32;3.60;;;19.70;99.90;;;;;;5033550;28;20087;-57
2022/05/18 04:53:35;;;;;;;5.53;3.78;;;19.70;99.90;;;;;;5033110;28;20385;-58
2022/05/18 04:56:01;;;;;;;5.82;3.53;;;19.60;99.90;;;;;;5051156;28;20109;-58
2022/05/18 04:58:27;;;;;;;8.55;4.53;;;19.50;99.90;;;;;;5051236;28;20175;-58
2022/05/18 05:01:00;;;;;;;6.63;4.03;;;19.60;99.90;;;;;;5050799;28;20051;-58
2022/05/18 05:03:26;;;;;;;;;;;19.70;99.90;;;;;;5051516;28;20033;-59
2022/05/18 05:05:52;;;;;;;8.88;3.83;;;19.70;99.90;;;;;;5033495;28;20011;-58
2022/05/18 05:08:18;;;;;;;6.20;4.10;;;19.70;99.90;;;;;;5051128;28;20053;-58
2022/05/18 05:10:43;;;;;;;8.02;4.00;;;19.70;99.90;;;;;;5032994;28;20029;-58
2022/05/18 05:13:09;;;;;;;8.88;4.93;;;19.70;99.90;;;;;;5050949;28;20090;-58
2022/05/18 05:15:36;;;;;;;10.57;4.80;;;19.70;99.90;;;;;;5050885;28;20025;-58
2022/05/18 05:18:01;;;;;;;24.35;5.85;;;19.70;99.90;;;;;;5050807;28;20021;-58
2022/05/18 05:20:27;;;;;;;9.25;4.68;;;19.60;99.90;;;;;;5050826;28;20048;-58
2022/05/18 05:22:52;;;;;;;6.55;4.07;;;19.70;99.90;;;;;;5050960;28;20146;-58
2022/05/18 05:25:18;;;;;;;7.07;4.25;;;19.80;99.90;;;;;;5050785;28;20044;-58
2022/05/18 05:27:44;;;;;;;8.98;4.93;;;19.70;99.90;;;;;;5050803;28;20646;-58
2022/05/18 05:30:11;;;;;;;9.10;4.75;;;19.80;99.90;;;;;;5050465;28;20095;-58
2022/05/18 05:32:37;;;;;;;8.35;4.80;;;19.90;99.90;;;;;;5050947;28;20056;-58
2022/05/18 05:35:03;;;;;;;11.07;5.28;;;19.80;99.90;;;;;;5053440;28;20029;-58
2022/05/18 05:37:29;;;;;;;7.70;4.80;;;19.80;99.90;;;;;;5036288;28;20487;-58
2022/05/18 05:39:55;;;;;;;6.70;4.80;;;19.80;99.90;;;;;;5036393;28;20035;-58
2022/05/18 05:42:22;;;;;;;6.82;4.85;;;19.90;99.90;;;;;;5054001;28;20033;-58
2022/05/18 05:44:47;;;;;;;9.07;4.55;;;19.80;99.90;;;;;;5036586;28;20025;-58
2022/05/18 05:47:13;;;;;;;10.88;5.07;;;19.80;99.90;;;;;;5054171;28;20052;-58
2022/05/18 05:49:39;;;;;;;9.73;4.45;;;19.70;99.90;;;;;;5053913;28;20029;-58
2022/05/18 05:52:06;;;;;;;11.65;4.93;;;19.80;99.90;;;;;;5054403;28;20032;-58
2022/05/18 05:54:33;;;;;;;8.88;4.50;;;19.90;99.90;;;;;;5054660;28;20037;-58
2022/05/18 05:57:01;;;;;;;8.88;4.50;;;19.90;99.90;;;;;;5053924;28;20021;-59
2022/05/18 05:59:27;;;;;;;9.32;4.05;;;19.80;99.90;;;;;;5053571;28;20037;-58
2022/05/18 06:01:52;;;;;;;6.05;4.18;;;19.80;99.90;;;;;;5053322;28;20020;-58
2022/05/18 06:04:18;;;;;;;20.73;4.28;;;19.90;99.90;;;;;;5065969;28;20020;-58
2022/05/18 06:06:44;;;;;;;25.45;4.72;;;20.00;99.90;;;;;;5053447;28;20029;-58
2022/05/18 06:09:10;;;;;;;14.23;4.57;;;20.10;99.90;;;;;;5050969;28;20160;-59
2022/05/18 06:11:36;;;;;;;9.00;3.45;;;20.20;99.90;;;;;;5050857;28;20025;-58
2022/05/18 06:14:02;;;;;;;12.57;3.80;;;20.30;99.90;;;;;;5049615;28;20067;-57
2022/05/18 06:16:28;;;;;;;14.20;3.60;;;20.30;99.90;;;;;;5048975;28;20033;-57
2022/05/18 06:18:54;;;;;;;9.52;3.30;;;20.40;99.90;;;;;;5034157;28;20706;-59
2022/05/18 06:21:20;;;;;;;12.77;3.78;;;20.40;99.90;;;;;;5042093;28;20907;-58
2022/05/18 06:23:45;;;;;;;10.23;2.92;;;20.50;99.90;;;;;;5024443;28;20056;-58
2022/05/18 06:26:11;;;;;;;7.60;3.08;;;20.70;99.90;;;;;;5042612;28;20032;-57
2022/05/18 06:28:37;;;;;;;9.40;3.03;;;20.80;99.90;;;;;;5044183;28;20386;-58
2022/05/18 06:31:04;;;;;;;15.35;3.40;;;20.80;99.90;;;;;;5044852;28;20029;-58
2022/05/18 06:33:30;;;;;;;9.90;3.47;;;20.90;99.90;;;;;;5045574;28;20033;-59
2022/05/18 06:35:55;;;;;;;7.70;2.97;;;21.10;99.90;;;;;;5044687;28;20043;-59
2022/05/18 06:38:23;;;;;;;5.28;2.13;;;21.20;99.90;;;;;;5046222;28;20028;-59
2022/05/18 06:43:33;;;;;;;4.97;2.35;;;21.50;99.90;;;;;;5040348;28;20031;-58
2022/05/18 06:46:00;;;;;;;7.70;2.67;;;21.60;99.90;;;;;;5017112;28;20025;-59
2022/05/18 06:48:26;;;;;;;6.50;2.50;;;21.50;99.90;;;;;;5042028;28;20024;-58
2022/05/18 06:50:51;;;;;;;8.10;2.13;;;21.80;99.90;;;;;;5053142;28;20035;-58
2022/05/18 06:53:17;;;;;;;4.53;1.70;;;22.50;99.90;;;;;;5039719;28;20033;-59
2022/05/18 06:55:42;;;;;;;6.72;1.85;;;23.10;99.90;;;;;;5044277;28;20124;-59
2022/05/18 06:58:08;;;;;;;4.45;2.20;;;23.80;99.90;;;;;;5044079;28;20029;-58
2022/05/18 07:00:34;;;;;;;4.75;1.90;;;24.70;99.90;;;;;;5030416;28;20036;-58
2022/05/18 07:02:59;;;;;;;4.43;1.63;;;25.20;99.10;;;;;;5042147;28;20021;-58
2022/05/18 07:05:25;;;;;;;4.93;1.40;;;25.90;98.00;;;;;;5043579;28;21022;-58
2022/05/18 07:07:51;;;;;;;4.18;1.45;;;26.30;95.80;;;;;;5043363;28;20154;-58
2022/05/18 07:10:16;;;;;;;3.30;1.42;;;26.60;95.20;;;;;;5047454;28;20059;-57
2022/05/18 07:12:42;;;;;;;3.88;1.70;;;27.00;93.80;;;;;;5044453;28;20044;-57
2022/05/18 07:15:08;;;;;;;3.78;1.70;;;27.10;93.00;;;;;;5023372;28;20025;-57
2022/05/18 07:17:34;;;;;;;2.70;1.40;;;27.40;92.10;;;;;;5047366;28;20096;-58
2022/05/18 07:20:00;;;;;;;5.03;1.50;;;26.80;92.60;;;;;;5047891;28;20044;-58
2022/05/18 07:22:26;;;;;;;3.40;1.13;;;27.30;92.20;;;;;;5040678;28;20079;-58
2022/05/18 07:24:52;;;;;;;4.63;1.35;;;27.30;91.50;;;;;;5035933;28;20033;-58
2022/05/18 07:27:17;;;;;;;4.13;1.40;;;26.90;91.20;;;;;;5042837;28;20392;-58
2022/05/18 07:29:43;;;;;;;6.47;1.30;;;27.40;90.60;;;;;;5043730;28;20037;-58
2022/05/18 07:32:09;;;;;;;5.13;1.40;;;27.80;90.20;;;;;;5027102;28;20101;-59
2022/05/18 07:34:36;;;;;;;2.90;1.42;;;28.10;89.60;;;;;;5046983;28;20029;-59
2022/05/18 07:37:02;;;;;;;2.58;1.08;;;28.50;88.20;;;;;;5047480;28;20037;-59
2022/05/18 07:39:28;;;;;;;1.88;1.27;;;28.70;86.40;;;;;;5044921;28;20029;-59
2022/05/18 07:41:55;;;;;;;7.40;1.40;;;28.10;87.80;;;;;;5045505;28;20053;-59
2022/05/18 07:44:22;;;;;;;7.40;1.33;;;28.10;86.90;;;;;;5042820;28;20106;-59
2022/05/18 07:46:48;;;;;;;3.67;1.02;;;29.00;86.80;;;;;;5043893;28;20110;-59
2022/05/18 07:49:13;;;;;;;3.15;1.20;;;29.80;82.60;;;;;;5048146;28;20040;-59
2022/05/18 07:51:39;;;;;;;4.97;1.20;;;30.50;80.60;;;;;;5046952;28;20028;-59
2022/05/18 07:54:05;;;;;;;4.70;1.27;;;30.80;78.00;;;;;;5047295;28;20524;-59
2022/05/18 07:56:31;;;;;;;3.63;0.93;;;30.40;77.60;;;;;;5049272;28;20021;-58
2022/05/18 07:58:56;;;;;;;2.00;1.00;;;30.10;76.80;;;;;;5045177;28;20029;-59
2022/05/18 08:01:22;;;;;;;2.05;0.75;;;29.80;77.90;;;;;;5044830;28;20043;-59
2022/05/18 08:03:48;;;;;;;2.72;1.02;;;30.10;76.90;;;;;;5049841;28;20035;-59
2022/05/18 08:06:14;;;;;;;4.28;1.20;;;30.70;75.70;;;;;;5023982;28;20478;-59
2022/05/18 08:08:40;;;;;;;3.38;0.80;;;30.00;76.10;;;;;;5038738;28;20029;-59
2022/05/18 08:16:34;;;;;;;17.13;1.60;;;30.20;74.50;;;;;;5040381;28;20397;-59
2022/05/18 08:19:01;;;;;;;3.05;1.30;;;30.20;74.80;;;;;;5033019;28;20036;-59
2022/05/18 08:21:26;;;;;;;5.63;1.00;;;30.20;74.60;;;;;;5024790;28;20439;-59
2022/05/18 08:23:52;;;;;;;2.08;1.08;;;30.00;76.80;;;;;;5021279;28;20033;-59
2022/05/18 08:26:18;;;;;;;7.63;1.05;;;29.40;76.40;;;;;;5025113;28;20040;-59
2022/05/18 08:28:44;;;;;;;2.38;1.08;;;30.20;76.00;;;;;;5032937;28;20031;-57
2022/05/18 08:31:09;;;;;;;3.17;1.13;;;30.80;73.60;;;;;;5013501;28;20057;-57
2022/05/18 08:33:35;;;;;;;2.95;1.30;;;30.90;73.60;;;;;;5030386;28;20037;-57
2022/05/18 08:36:06;;;;;;;2.55;1.10;;;30.70;72.70;;;;;;5029532;28;20456;-59
2022/05/18 08:38:34;;;;;;;5.82;1.02;;;30.60;72.80;;;;;;5032682;28;21736;-58
2022/05/18 08:41:11;;;;;;;3.67;1.20;;;30.90;72.10;;;;;;5033698;28;20698;-58
2022/05/18 08:43:40;;;;;;;2.05;0.90;;;30.90;71.90;;;;;;5020024;28;20025;-58
2022/05/18 08:46:17;;;;;;;3.55;1.25;;;31.20;70.80;;;;;;5034211;28;20057;-59
2022/05/18 08:48:43;;;;;;;2.22;0.82;;;31.20;71.00;;;;;;5035471;28;20810;-59
2022/05/18 08:51:35;;;;;;;5.40;1.10;;;30.80;70.90;;;;;;5037538;28;20047;-59
2022/05/18 08:54:13;;;;;;;2.33;1.08;;;31.50;70.50;;;;;;5038398;28;20525;-59
2022/05/18 08:56:40;;;;;;;3.78;1.08;;;31.70;69.70;;;;;;5014281;28;20053;-59
2022/05/18 08:59:14;;;;;;;3.53;1.23;;;32.30;68.40;;;;;;5021118;28;20042;-59
2022/05/18 09:01:46;;;;;;;2.95;1.25;;;32.40;68.90;;;;;;5031707;28;20127;-59
2022/05/18 09:04:18;;;;;;;2.72;1.30;;;32.60;67.70;;;;;;5018976;28;20057;-59
2022/05/18 09:07:04;;;;;;;2.47;1.00;;;31.90;68.30;;;;;;5032540;28;20115;-59
2022/05/18 09:12:34;;;;;;;3.40;1.40;;;30.50;71.20;;;;;;5036536;28;20048;-59
2022/05/18 09:15:03;;;;;;;3.83;1.48;;;29.50;73.80;;;;;;5038679;28;20091;-59
2022/05/18 09:17:50;;;;;;;5.68;1.33;;;29.30;74.00;;;;;;5038401;28;21260;-58
2022/05/18 09:20:21;;;;;;;2.85;1.00;;;30.30;72.80;;;;;;5038057;28;20139;-58
2022/05/18 09:23:14;;;;;;;8.45;1.33;;;30.50;71.90;;;;;;5039649;28;20722;-58
2022/05/18 09:25:51;;;;;;;2.35;1.00;;;30.80;70.90;;;;;;5032748;28;20032;-58
2022/05/18 09:28:28;;;;;;;2.30;1.08;;;30.90;71.30;;;;;;5039606;28;20017;-58
2022/05/18 09:30:59;;;;;;;2.55;1.10;;;30.90;71.40;;;;;;5037027;28;20549;-59
2022/05/18 09:33:53;;;;;;;2.58;1.05;;;31.10;70.10;;;;;;5036357;28;20040;-60
2022/05/18 09:36:49;;;;;;;3.53;1.00;;;32.40;68.10;;;;;;5036996;28;20056;-57
2022/05/18 09:39:18;;;;;;;2.33;1.00;;;32.80;66.60;;;;;;5039590;28;20035;-57
2022/05/18 09:41:49;;;;;;;2.15;0.90;;;33.10;66.50;;;;;;5038369;28;20032;-57
2022/05/18 09:44:30;;;;;;;1.40;0.80;;;32.70;66.90;;;;;;5034717;28;20033;-58
2022/05/18 09:46:57;;;;;;;3.55;1.20;;;32.40;67.40;;;;;;5041392;28;20861;-58
2022/05/18 09:49:34;;;;;;;2.10;0.80;;;31.10;69.40;;;;;;5042096;28;20149;-59
2022/05/18 09:52:03;;;;;;;6.72;3.42;;;31.90;68.80;;;;;;5041902;28;20033;-59
2022/05/18 09:54:34;;;;;;;3.53;1.25;;;32.00;66.40;;;;;;5041936;28;20059;-59
2022/05/18 09:57:08;;;;;;;5.97;1.50;;;31.10;69.40;;;;;;5040739;28;20369;-59
2022/05/18 09:59:40;;;;;;;11.63;1.73;;;31.30;69.40;;;;;;5041887;28;20029;-59
2022/05/18 10:07:53;;;;;;;3.55;1.30;;;32.40;67.30;;;;;;5041105;28;20103;-60
2022/05/18 10:10:19;;;;;;;3.70;1.35;;;33.00;65.90;;;;;;5041497;28;20056;-59
2022/05/18 10:12:53;;;;;;;2.83;1.65;;;32.90;65.60;;;;;;5040624;28;20041;-61
2022/05/18 10:15:41;;;;;;;6.32;1.42;;;32.40;67.50;;;;;;5039798;28;20030;-57
2022/05/18 10:18:22;;;;;;;3.10;1.23;;;32.70;66.80;;;;;;5042780;28;20043;-59
2022/05/18 10:21:06;;;;;;;3.60;1.40;;;32.30;67.70;;;;;;5033042;28;20088;-59
2022/05/18 10:23:41;;;;;;;2.90;1.25;;;32.90;66.70;;;;;;5041246;28;20043;-59
2022/05/18 10:26:32;;;;;;;2.75;1.05;;;32.50;68.00;;;;;;5029990;28;20037;-59
2022/05/18 10:29:13;;;;;;;2.92;1.10;;;32.90;66.50;;;;;;5037316;28;20662;-59
2022/05/18 10:31:43;;;;;;;3.95;1.30;;;32.30;67.60;;;;;;5027171;28;20044;-59
2022/05/18 10:34:22;;;;;;;4.53;1.40;;;32.70;67.50;;;;;;5040941;28;20375;-59
2022/05/18 10:36:54;;;;;;;2.88;1.20;;;32.90;67.30;;;;;;5043500;28;20033;-58
2022/05/18 10:39:47;;;;;;;5.07;1.48;;;32.80;66.80;;;;;;5051280;28;20032;-58
2022/05/18 10:42:23;;;;;;;7.78;1.10;;;33.30;65.80;;;;;;5045608;28;20017;-58
2022/05/18 10:44:50;;;;;;;3.33;1.42;;;33.40;64.90;;;;;;5067369;28;20016;-59
2022/05/18 10:47:26;;;;;;;4.55;1.38;;;32.50;67.00;;;;;;5049333;28;20033;-59
2022/05/18 10:50:09;;;;;;;3.42;1.35;;;32.90;66.30;;;;;;5033989;28;20104;-59
2022/05/18 10:52:34;;;;;;;2.85;1.15;;;32.60;66.80;;;;;;5032055;28;20059;-59
2022/05/18 10:55:17;;;;;;;3.17;1.23;;;32.10;66.80;;;;;;5031002;28;20033;-59
2022/05/18 10:57:57;;;;;;;3.35;1.40;;;32.30;67.60;;;;;;5033415;28;20505;-59
2022/05/18 11:00:45;;;;;;;3.08;1.02;;;33.00;66.70;;;;;;5032179;28;20028;-59
2022/05/18 11:03:33;;;;;;;4.30;1.48;;;32.70;66.10;;;;;;5017795;28;20038;-59
2022/05/18 11:06:07;;;;;;;4.45;1.20;;;32.40;66.60;;;;;;5014459;28;20710;-59
2022/05/18 11:08:33;;;;;;;6.15;1.05;;;32.00;67.40;;;;;;5031655;28;20025;-59
2022/05/18 11:11:17;;;;;;;4.25;1.10;;;32.30;67.30;;;;;;5031634;28;20371;-59
2022/05/18 11:13:59;;;;;;;2.55;1.30;;;32.80;66.00;;;;;;5031586;28;20033;-59
2022/05/18 11:16:31;;;;;;;3.60;1.40;;;33.30;66.10;;;;;;5031652;28;20032;-59
2022/05/18 11:19:35;;;;;;;4.40;1.10;;;33.50;65.00;;;;;;5031867;28;20100;-59
2022/05/18 11:22:28;;;;;;;4.10;1.30;;;33.60;65.00;;;;;;5032106;28;20022;-59
2022/05/18 11:25:00;;;;;;;3.78;0.98;;;33.10;65.50;;;;;;5032468;28;20029;-59
2022/05/18 11:27:39;;;;;;;3.50;1.67;;;33.80;65.40;;;;;;5032392;28;20068;-59
2022/05/18 11:30:08;;;;;;;4.90;1.33;;;33.50;64.10;;;;;;5032021;28;20026;-59
2022/05/18 11:33:10;;;;;;;2.25;1.30;;;33.10;64.90;;;;;;5013764;28;20032;-59
2022/05/18 11:35:41;;;;;;;3.08;1.20;;;32.70;65.80;;;;;;5032382;28;20044;-59
2022/05/18 11:38:49;;;;;;;5.88;1.55;;;33.50;64.70;;;;;;5032253;28;20025;-59
2022/05/18 11:41:23;;;;;;;3.05;1.30;;;34.90;62.60;;;;;;4935313;29;20520;-59
2022/05/18 11:43:57;;;;;;;3.47;1.10;;;34.20;64.40;;;;;;5023789;28;20033;-59
2022/05/18 11:46:46;;;;;;;2.28;1.20;;;34.70;63.80;;;;;;5014579;28;20017;-59
2022/05/18 11:49:20;;;;;;;7.15;1.40;;;33.60;64.10;;;;;;5032307;28;20053;-59
2022/05/18 11:51:49;;;;;;;3.00;1.23;;;33.00;65.40;;;;;;5032503;28;20029;-59
2022/05/18 11:54:45;;;;;;;3.88;1.60;;;33.40;64.60;;;;;;5032073;28;20033;-59
2022/05/18 11:57:29;;;;;;;3.47;1.60;;;34.00;63.50;;;;;;5014252;28;20025;-59
2022/05/18 12:00:07;;;;;;;5.45;1.67;;;34.80;62.40;;;;;;5031912;28;20060;-59
2022/05/18 12:03:10;;;;;;;1.48;1.27;;;35.20;61.20;;;;;;5031740;28;20041;-59
2022/05/18 12:06:10;;;;;;;2.22;1.30;;;33.80;63.40;;;;;;5032346;28;20025;-59
2022/05/18 12:09:08;;;;;;;2.55;1.10;;;33.30;64.50;;;;;;5014038;28;20022;-59
2022/05/18 12:11:37;;;;;;;2.33;1.20;;;33.50;65.00;;;;;;5031576;28;20056;-59
2022/05/18 12:14:30;;;;;;;4.70;1.20;;;33.00;65.10;;;;;;5031467;28;20049;-59
2022/05/18 12:17:16;;;;;;;3.45;1.20;;;34.00;64.30;;;;;;5031409;28;20037;-59
2022/05/18 12:20:12;;;;;;;2.67;1.35;;;34.10;63.40;;;;;;5031324;28;20107;-59
2022/05/18 12:22:42;;;;;;;2.08;1.10;;;34.10;63.40;;;;;;5031339;28;20100;-57
2022/05/18 12:25:12;;;;;;;2.83;1.20;;;34.30;63.10;;;;;;5031550;28;20113;-57
2022/05/18 12:27:39;;;;;;;7.18;1.52;;;34.60;62.20;;;;;;5031312;28;20544;-57
2022/05/18 12:30:26;;;;;;;5.88;1.50;;;34.40;62.20;;;;;;5013592;28;20083;-57
2022/05/18 12:32:54;;;;;;;1.73;1.10;;;34.90;62.10;;;;;;5031163;28;20423;-57
2022/05/18 12:35:32;;;;;;;2.70;1.20;;;34.80;61.10;;;;;;5031565;28;20049;-57
2022/05/18 12:38:20;;;;;;;4.25;1.00;;;34.80;61.40;;;;;;5031515;28;20104;-57
2022/05/18 12:40:52;;;;;;;3.88;1.42;;;34.80;61.20;;;;;;5031351;28;20504;-57
2022/05/18 12:43:44;;;;;;;3.95;1.00;;;33.70;63.40;;;;;;5034309;28;20048;-57
2022/05/18 12:46:15;;;;;;;5.88;1.48;;;34.10;62.40;;;;;;5037975;28;20025;-57
2022/05/18 12:48:54;;;;;;;5.35;1.15;;;34.60;61.70;;;;;;5037662;28;20025;-57
2022/05/18 12:51:25;;;;;;;3.10;1.20;;;34.10;61.10;;;;;;5037898;28;20029;-57
2022/05/18 12:53:51;;;;;;;4.15;1.20;;;35.20;61.20;;;;;;5037113;28;20131;-57
2022/05/18 12:56:42;;;;;;;3.88;1.30;;;35.90;59.40;;;;;;5037984;28;20120;-57
2022/05/18 12:59:11;;;;;;;2.80;1.20;;;35.50;59.00;;;;;;5037546;28;20037;-57
2022/05/18 13:01:52;;;;;;;3.13;0.90;;;34.50;60.00;;;;;;5020013;28;20490;-56
2022/05/18 13:04:18;;;;;;;4.10;1.10;;;34.60;60.00;;;;;;5020306;28;20028;-56
2022/05/18 13:06:52;;;;;;;3.92;1.20;;;34.60;58.70;;;;;;5037680;28;20023;-56
2022/05/18 13:09:26;;;;;;;3.00;1.25;;;33.90;61.20;;;;;;5038080;28;20482;-56
2022/05/18 13:12:03;;;;;;;2.13;1.00;;;34.30;60.70;;;;;;5037537;28;20022;-56
2022/05/18 13:14:34;;;;;;;2.13;1.23;;;35.10;58.60;;;;;;5037634;28;20037;-56
2022/05/18 13:17:00;;;;;;;;;;;35.00;59.10;;;;;;5019871;28;20030;-56
2022/05/18 13:19:30;;;;;;;6.88;0.90;;;34.80;58.80;;;;;;5037504;28;20266;-56
2022/05/18 13:21:58;;;;;;;2.60;1.10;;;35.30;58.60;;;;;;5037761;28;20390;-56
2022/05/18 13:24:31;;;;;;;4.18;1.23;;;33.90;60.10;;;;;;5038014;28;20420;-56